Time;durP1;ratioP1;P1;durP2;ratioP2;P2;SDS_P1;SDS_P2;PMS_P1;PMS_P2;Temp;Humidity;BMP_temperature;BMP_pressure;BME280_temperature;BME280_humidity;BME280_pressure;Samples;Min_cycle;Max_cycle;Signal;HPM_P1;HPM_P2
2021/06/20 00:00:58;;;;;;;6.35;5.25;;;21.50;99.90;;;;;;5095771;28;20078;-69
2021/06/20 00:03:23;;;;;;;6.47;5.82;;;21.50;99.90;;;;;;5094689;28;20021;-69
2021/06/20 00:05:53;;;;;;;8.77;6.10;;;21.50;99.90;;;;;;5095151;28;20032;-69
2021/06/20 00:08:20;;;;;;;6.70;6.03;;;21.70;99.90;;;;;;5076946;28;20036;-69
2021/06/20 00:10:48;;;;;;;8.18;6.63;;;21.70;99.90;;;;;;5095291;28;20024;-69
2021/06/20 00:13:14;;;;;;;11.38;7.65;;;21.60;99.90;;;;;;5095544;28;20020;-69
2021/06/20 00:15:40;;;;;;;9.23;7.13;;;21.40;99.90;;;;;;5095433;28;20024;-69
2021/06/20 00:18:06;;;;;;;18.13;7.18;;;21.30;99.90;;;;;;5093574;28;20034;-69
2021/06/20 00:20:36;;;;;;;8.63;6.75;;;21.10;99.90;;;;;;5093917;28;20020;-68
2021/06/20 00:23:01;;;;;;;11.50;7.85;;;21.20;99.90;;;;;;5093980;28;20020;-69
2021/06/20 00:25:28;;;;;;;7.53;5.97;;;21.10;99.90;;;;;;5094300;28;20031;-69
2021/06/20 00:27:54;;;;;;;9.50;8.05;;;21.40;99.90;;;;;;5093755;28;20030;-69
2021/06/20 00:30:22;;;;;;;15.35;10.93;;;21.30;99.90;;;;;;5095167;28;20076;-68
2021/06/20 00:32:49;;;;;;;24.05;15.20;;;21.10;99.90;;;;;;5093679;28;20032;-68
2021/06/20 00:35:16;;;;;;;22.92;14.77;;;20.70;99.90;;;;;;5094549;28;20042;-68
2021/06/20 00:37:41;;;;;;;19.58;14.00;;;20.60;99.90;;;;;;5094876;28;20040;-68
2021/06/20 00:40:08;;;;;;;20.25;16.90;;;20.60;99.90;;;;;;5095025;28;20092;-68
2021/06/20 00:42:34;;;;;;;22.75;17.70;;;20.40;99.90;;;;;;5094677;28;20020;-68
2021/06/20 00:45:00;;;;;;;26.33;19.27;;;20.30;99.90;;;;;;5094349;28;20016;-68
2021/06/20 00:47:25;;;;;;;33.63;22.65;;;20.20;99.90;;;;;;5094863;28;20047;-67
2021/06/20 00:49:51;;;;;;;51.70;27.20;;;20.00;99.90;;;;;;5092994;28;20024;-67
2021/06/20 00:52:18;;;;;;;33.95;23.02;;;19.90;99.90;;;;;;5094237;28;20159;-68
2021/06/20 00:54:48;;;;;;;18.05;12.57;;;19.80;99.90;;;;;;5094721;28;20032;-67
2021/06/20 00:57:17;;;;;;;13.68;10.43;;;19.70;99.90;;;;;;5094607;28;20052;-68
2021/06/20 00:59:44;;;;;;;17.58;14.15;;;19.60;99.90;;;;;;5093178;28;20385;-68
2021/06/20 01:02:11;;;;;;;18.52;14.80;;;19.60;99.90;;;;;;5093589;28;20377;-68
2021/06/20 01:04:38;;;;;;;24.40;16.30;;;19.70;99.90;;;;;;5094314;28;20051;-68
2021/06/20 01:07:04;;;;;;;30.83;17.77;;;19.70;99.90;;;;;;5094506;28;20377;-68
2021/06/20 01:09:29;;;;;;;30.23;17.85;;;19.70;99.90;;;;;;5093312;28;20028;-68
2021/06/20 01:11:55;;;;;;;26.33;17.02;;;19.70;99.90;;;;;;5075832;28;20028;-69
2021/06/20 01:14:21;;;;;;;30.08;17.25;;;19.70;99.90;;;;;;5076659;28;20016;-68
2021/06/20 01:16:46;;;;;;;22.63;16.55;;;19.70;99.90;;;;;;5094416;28;20039;-68
2021/06/20 01:19:12;;;;;;;17.63;12.93;;;19.70;99.90;;;;;;5092487;28;20421;-68
2021/06/20 01:21:38;;;;;;;14.52;8.73;;;19.60;99.90;;;;;;5093792;28;20032;-68
2021/06/20 01:24:04;;;;;;;15.95;10.10;;;19.50;99.90;;;;;;5092895;28;20107;-68
2021/06/20 01:26:32;;;;;;;14.50;8.70;;;19.40;99.90;;;;;;5094001;28;20116;-68
2021/06/20 01:29:06;;;;;;;14.10;7.18;;;19.40;99.90;;;;;;5076317;28;20020;-68
2021/06/20 01:31:33;;;;;;;11.23;6.85;;;19.40;99.90;;;;;;5094225;28;20472;-68
2021/06/20 01:34:00;;;;;;;16.13;7.60;;;19.40;99.90;;;;;;5092301;28;20039;-68
2021/06/20 01:36:25;;;;;;;13.70;7.93;;;19.40;99.90;;;;;;5094188;28;20020;-68
2021/06/20 01:38:51;;;;;;;14.73;8.43;;;19.30;99.90;;;;;;5093438;28;20397;-68
2021/06/20 01:41:17;;;;;;;17.27;9.85;;;19.30;99.90;;;;;;5092404;28;20031;-68
2021/06/20 01:43:42;;;;;;;20.05;10.50;;;19.40;99.90;;;;;;5075483;28;20115;-68
2021/06/20 01:46:08;;;;;;;14.85;11.05;;;19.30;99.90;;;;;;5092651;28;20028;-68
2021/06/20 01:48:36;;;;;;;16.42;10.48;;;19.40;99.90;;;;;;5092879;28;20031;-68
2021/06/20 01:51:04;;;;;;;18.67;11.60;;;19.40;99.90;;;;;;5093731;28;20020;-68
2021/06/20 01:53:29;;;;;;;17.58;11.40;;;19.50;99.90;;;;;;5075298;28;20023;-67
2021/06/20 01:55:56;;;;;;;18.00;12.95;;;19.50;99.90;;;;;;5075386;28;20077;-68
2021/06/20 01:58:21;;;;;;;23.05;14.50;;;19.50;99.90;;;;;;5092126;28;20020;-67
2021/06/20 02:00:50;;;;;;;25.83;16.45;;;19.50;99.90;;;;;;5093943;28;20104;-67
2021/06/20 02:03:22;;;;;;;24.55;16.10;;;19.40;99.90;;;;;;5092116;28;20021;-68
2021/06/20 02:05:48;;;;;;;28.75;17.75;;;19.40;99.90;;;;;;5092060;28;20023;-67
2021/06/20 02:08:18;;;;;;;29.13;18.70;;;19.30;99.90;;;;;;5092401;28;20389;-68
2021/06/20 02:10:44;;;;;;;19.35;13.70;;;19.30;99.90;;;;;;5075796;28;20032;-67
2021/06/20 02:13:10;;;;;;;21.45;12.85;;;19.20;99.90;;;;;;5092012;28;20032;-67
2021/06/20 02:15:35;;;;;;;14.02;10.73;;;19.20;99.90;;;;;;5075231;28;20024;-68
2021/06/20 02:18:01;;;;;;;13.02;9.13;;;19.10;99.90;;;;;;5092244;28;20029;-67
2021/06/20 02:20:27;;;;;;;17.60;9.88;;;19.00;99.90;;;;;;5093824;28;20031;-67
2021/06/20 02:22:52;;;;;;;12.77;8.57;;;19.00;99.90;;;;;;5093415;28;20024;-68
2021/06/20 02:25:20;;;;;;;11.90;6.40;;;19.00;99.90;;;;;;5091915;28;20027;-68
2021/06/20 02:27:48;;;;;;;10.57;6.72;;;19.00;99.90;;;;;;5093426;28;20385;-67
2021/06/20 02:30:16;;;;;;;10.95;7.32;;;18.90;99.90;;;;;;5093625;28;20378;-68
2021/06/20 02:32:42;;;;;;;10.52;6.30;;;18.90;99.90;;;;;;5074929;28;20388;-67
2021/06/20 02:35:10;;;;;;;12.25;5.80;;;18.90;99.90;;;;;;5092148;28;20024;-67
2021/06/20 02:37:37;;;;;;;10.43;5.10;;;18.90;99.90;;;;;;5091634;28;20466;-68
2021/06/20 02:40:04;;;;;;;8.93;5.13;;;18.90;99.90;;;;;;5092066;28;20052;-67
2021/06/20 02:42:29;;;;;;;11.68;5.55;;;18.90;99.90;;;;;;5091697;28;20063;-67
2021/06/20 02:44:55;;;;;;;10.40;4.82;;;18.80;99.90;;;;;;5075425;28;20457;-67
2021/06/20 02:47:20;;;;;;;6.78;4.45;;;18.80;99.90;;;;;;5097192;28;20035;-67
2021/06/20 02:49:46;;;;;;;10.70;4.80;;;18.80;99.90;;;;;;5097161;28;20065;-67
2021/06/20 02:52:14;;;;;;;6.32;4.25;;;18.80;99.90;;;;;;5097097;28;20090;-67
2021/06/20 02:54:49;;;;;;;8.77;4.93;;;18.80;99.90;;;;;;5096816;28;20020;-67
2021/06/20 02:57:16;;;;;;;6.80;4.47;;;18.90;99.90;;;;;;5096680;28;20423;-67
2021/06/20 02:59:42;;;;;;;8.00;4.80;;;18.90;99.90;;;;;;5096948;28;20073;-67
2021/06/20 03:02:07;;;;;;;7.80;4.78;;;18.90;99.90;;;;;;5095131;28;20024;-67
2021/06/20 03:04:33;;;;;;;8.65;4.63;;;18.90;99.90;;;;;;5096935;28;20067;-68
2021/06/20 03:06:58;;;;;;;8.18;4.68;;;18.90;99.90;;;;;;5096613;28;20107;-67
2021/06/20 03:09:24;;;;;;;7.70;4.28;;;18.90;99.90;;;;;;5096556;28;20032;-67
2021/06/20 03:11:49;;;;;;;8.55;4.38;;;18.90;99.90;;;;;;5095765;28;20414;-67
2021/06/20 03:14:15;;;;;;;9.18;4.35;;;18.90;99.90;;;;;;5096462;28;20466;-67
2021/06/20 03:16:43;;;;;;;6.28;4.47;;;18.90;99.90;;;;;;5095207;28;20027;-67
2021/06/20 03:19:09;;;;;;;10.95;4.60;;;19.00;99.90;;;;;;5096541;28;20036;-67
2021/06/20 03:21:34;;;;;;;9.57;4.70;;;19.00;99.90;;;;;;5096569;28;20020;-67
2021/06/20 03:24:00;;;;;;;11.35;4.53;;;19.00;99.90;;;;;;5096555;28;20478;-68
2021/06/20 03:26:26;;;;;;;8.20;4.63;;;19.00;99.90;;;;;;5096197;28;20381;-67
2021/06/20 03:28:51;;;;;;;10.00;4.93;;;19.00;99.90;;;;;;5096411;28;20024;-67
2021/06/20 03:31:18;;;;;;;7.65;4.25;;;19.10;99.90;;;;;;5095235;28;20077;-67
2021/06/20 03:33:45;;;;;;;6.95;4.00;;;19.10;99.90;;;;;;5096318;28;20031;-67
2021/06/20 03:36:11;;;;;;;8.23;4.55;;;19.10;99.90;;;;;;5096028;28;20457;-67
2021/06/20 03:38:36;;;;;;;12.75;4.55;;;19.10;99.90;;;;;;5095610;28;20050;-67
2021/06/20 03:41:02;;;;;;;7.60;3.95;;;19.10;99.90;;;;;;5094410;28;20462;-67
2021/06/20 03:43:28;;;;;;;9.57;4.28;;;19.20;99.90;;;;;;5094722;28;20043;-68
2021/06/20 03:45:54;;;;;;;8.98;4.22;;;19.20;99.90;;;;;;5096097;28;20024;-67
2021/06/20 03:48:19;;;;;;;7.45;4.35;;;19.20;99.90;;;;;;5095794;28;20103;-67
2021/06/20 03:50:45;;;;;;;11.00;4.32;;;19.20;99.90;;;;;;5095998;28;20473;-67
2021/06/20 03:53:11;;;;;;;7.93;4.50;;;19.20;99.90;;;;;;5095963;28;20024;-67
2021/06/20 03:55:38;;;;;;;10.80;4.60;;;19.20;99.90;;;;;;5094661;28;20027;-67
2021/06/20 03:58:06;;;;;;;9.38;4.55;;;19.30;99.90;;;;;;5095771;28;20523;-67
2021/06/20 04:00:32;;;;;;;11.75;4.80;;;19.30;99.90;;;;;;5094387;28;20027;-68
2021/06/20 04:02:58;;;;;;;10.27;4.50;;;19.30;99.90;;;;;;5095817;28;20044;-67
2021/06/20 04:05:23;;;;;;;8.77;4.43;;;19.40;99.90;;;;;;5094268;28;20023;-67
2021/06/20 04:07:49;;;;;;;9.27;4.25;;;19.30;99.90;;;;;;5095400;28;20066;-68
2021/06/20 04:10:14;;;;;;;13.23;4.78;;;19.40;99.90;;;;;;5095635;28;20034;-67
2021/06/20 04:12:40;;;;;;;9.85;4.28;;;19.40;99.90;;;;;;5095578;28;20032;-67
2021/06/20 04:15:07;;;;;;;14.15;4.95;;;19.40;99.90;;;;;;5095551;28;20106;-67
2021/06/20 04:17:34;;;;;;;12.15;4.78;;;19.50;99.90;;;;;;5094210;28;20051;-67
2021/06/20 04:20:02;;;;;;;10.43;4.82;;;19.50;99.90;;;;;;5095185;28;20016;-67
2021/06/20 04:22:28;;;;;;;12.10;4.70;;;19.60;99.90;;;;;;5095082;28;20486;-67
2021/06/20 04:24:54;;;;;;;12.68;5.00;;;19.60;99.90;;;;;;5095359;28;20043;-67
2021/06/20 04:27:19;;;;;;;16.08;6.07;;;19.60;99.90;;;;;;5095308;28;20047;-68
2021/06/20 04:29:45;;;;;;;12.00;5.80;;;19.70;99.90;;;;;;5094042;28;20078;-67
2021/06/20 04:32:10;;;;;;;13.40;6.07;;;19.70;99.90;;;;;;5095478;28;20024;-68
2021/06/20 04:34:36;;;;;;;14.10;6.32;;;19.70;99.90;;;;;;5093737;28;20525;-67
2021/06/20 04:37:02;;;;;;;10.07;6.63;;;19.70;99.90;;;;;;5093091;28;20040;-68
2021/06/20 04:39:28;;;;;;;12.23;5.95;;;19.70;99.90;;;;;;5094961;28;20465;-68
2021/06/20 04:41:53;;;;;;;9.23;5.82;;;19.80;99.90;;;;;;5094998;28;20066;-68
2021/06/20 04:44:42;;;;;;;10.35;5.18;;;19.80;99.90;;;;;;5094697;28;20070;-68
2021/06/20 04:47:05;;;;;;;16.33;5.97;;;19.90;99.90;;;;;;5094256;28;20051;-68
2021/06/20 04:49:31;;;;;;;14.27;6.35;;;19.90;99.90;;;;;;5094859;28;20024;-68
2021/06/20 04:51:56;;;;;;;10.20;5.60;;;19.90;99.90;;;;;;5094857;28;20028;-68
2021/06/20 04:54:22;;;;;;;16.83;6.13;;;19.90;99.90;;;;;;5094798;28;20035;-69
2021/06/20 04:56:48;;;;;;;13.98;6.43;;;20.00;99.90;;;;;;5094518;28;20028;-68
2021/06/20 04:59:14;;;;;;;12.60;5.72;;;20.10;99.90;;;;;;5075986;28;20111;-68
2021/06/20 05:01:39;;;;;;;16.05;5.53;;;20.20;99.90;;;;;;5093144;28;20028;-68
2021/06/20 05:04:06;;;;;;;11.75;5.45;;;20.40;99.90;;;;;;5093570;28;20016;-68
2021/06/20 05:06:32;;;;;;;10.65;5.30;;;20.70;99.90;;;;;;5076787;28;20031;-68
2021/06/20 05:08:58;;;;;;;14.10;6.13;;;20.90;99.90;;;;;;5093770;28;20028;-68
2021/06/20 05:11:23;;;;;;;11.82;5.30;;;21.40;99.90;;;;;;5092547;28;20032;-69
2021/06/20 05:13:49;;;;;;;11.40;5.75;;;21.80;99.90;;;;;;5094348;28;20400;-69
2021/06/20 05:16:14;;;;;;;9.82;4.32;;;21.60;99.90;;;;;;5093812;28;20101;-68
2021/06/20 05:18:41;;;;;;;10.82;4.55;;;21.60;99.90;;;;;;5094242;28;20032;-68
2021/06/20 05:21:06;;;;;;;13.13;4.82;;;22.10;99.90;;;;;;5093786;28;20028;-68
2021/06/20 05:23:32;;;;;;;10.93;4.60;;;22.70;99.90;;;;;;5094278;28;20023;-69
2021/06/20 05:25:57;;;;;;;7.70;4.40;;;23.20;99.90;;;;;;5093742;28;20024;-69
2021/06/20 05:28:23;;;;;;;8.73;4.07;;;23.20;99.90;;;;;;5092466;28;20028;-68
2021/06/20 05:30:48;;;;;;;8.43;3.78;;;23.60;99.90;;;;;;5094224;28;20028;-69
2021/06/20 05:33:16;;;;;;;9.18;3.83;;;23.40;99.90;;;;;;5092389;28;20495;-70
2021/06/20 05:35:42;;;;;;;10.88;4.03;;;23.60;99.90;;;;;;5094089;28;20024;-69
2021/06/20 05:38:08;;;;;;;5.22;3.13;;;23.50;99.90;;;;;;5093446;28;20075;-70
2021/06/20 05:40:35;;;;;;;6.35;3.88;;;23.60;99.90;;;;;;5093710;28;20016;-70
2021/06/20 05:43:01;;;;;;;11.15;3.70;;;23.60;99.90;;;;;;5094026;28;20023;-69
2021/06/20 05:45:27;;;;;;;9.88;3.45;;;23.70;99.90;;;;;;5093591;28;20016;-70
2021/06/20 05:47:52;;;;;;;6.20;2.92;;;23.90;99.90;;;;;;5092502;28;20032;-70
2021/06/20 05:50:18;;;;;;;5.90;3.25;;;23.90;99.90;;;;;;5092216;28;20157;-70
2021/06/20 05:52:43;;;;;;;6.88;3.33;;;24.10;99.90;;;;;;5092506;28;20024;-70
2021/06/20 05:55:09;;;;;;;7.95;3.38;;;24.00;99.90;;;;;;5093800;28;20038;-70
2021/06/20 05:57:35;;;;;;;6.45;3.03;;;23.90;99.90;;;;;;5093572;28;20028;-70
2021/06/20 06:00:00;;;;;;;7.00;3.08;;;23.70;99.90;;;;;;5093623;28;20445;-69
2021/06/20 06:02:26;;;;;;;5.28;2.97;;;23.10;99.90;;;;;;5093543;28;20020;-69
2021/06/20 06:04:51;;;;;;;6.15;3.08;;;23.20;99.90;;;;;;5092817;28;20100;-69
2021/06/20 06:07:17;;;;;;;7.03;3.55;;;23.80;99.90;;;;;;5093871;28;20020;-70
2021/06/20 06:09:43;;;;;;;6.10;2.75;;;24.10;99.90;;;;;;5093874;28;20020;-70
2021/06/20 06:12:08;;;;;;;6.28;2.90;;;24.40;99.90;;;;;;5093611;28;20073;-70
2021/06/20 06:14:34;;;;;;;3.22;2.55;;;24.20;99.90;;;;;;5092317;28;20504;-70
2021/06/20 06:17:00;;;;;;;4.43;2.90;;;24.40;99.90;;;;;;5076000;28;20369;-69
2021/06/20 06:19:25;;;;;;;5.78;2.95;;;24.70;99.90;;;;;;5092511;28;20076;-70
2021/06/20 06:21:51;;;;;;;5.30;2.70;;;24.90;99.90;;;;;;5097366;28;20027;-70
2021/06/20 06:24:17;;;;;;;7.38;2.85;;;24.50;99.90;;;;;;5097661;28;20027;-70
2021/06/20 06:26:43;;;;;;;4.75;2.88;;;24.10;99.90;;;;;;5097041;28;20432;-70
2021/06/20 06:29:09;;;;;;;4.65;2.70;;;23.50;99.90;;;;;;5096400;28;20032;-69
2021/06/20 06:31:36;;;;;;;5.97;3.63;;;23.10;99.90;;;;;;5097236;28;20020;-69
2021/06/20 06:34:03;;;;;;;4.38;2.78;;;22.80;99.90;;;;;;5096056;28;20486;-69
2021/06/20 06:36:28;;;;;;;8.13;3.33;;;22.50;99.90;;;;;;5096273;28;20063;-69
2021/06/20 06:38:54;;;;;;;4.03;3.00;;;22.40;99.90;;;;;;5095375;28;20075;-69
2021/06/20 06:41:20;;;;;;;6.35;3.05;;;22.00;99.90;;;;;;5096792;28;20470;-69
2021/06/20 06:43:46;;;;;;;5.43;3.10;;;22.10;99.90;;;;;;5095820;28;20027;-69
2021/06/20 06:46:12;;;;;;;6.20;3.78;;;22.20;99.90;;;;;;5095464;28;20112;-69
2021/06/20 06:48:37;;;;;;;5.72;3.60;;;22.10;99.90;;;;;;5095783;28;20500;-69
2021/06/20 06:51:03;;;;;;;4.80;3.47;;;22.10;99.90;;;;;;5097182;28;20024;-69
2021/06/20 06:53:29;;;;;;;7.03;3.70;;;22.00;99.90;;;;;;5095706;28;20032;-69
2021/06/20 06:55:54;;;;;;;4.10;3.67;;;22.00;99.90;;;;;;5096547;28;20030;-70
2021/06/20 06:58:20;;;;;;;4.65;3.60;;;22.20;99.90;;;;;;5096963;28;20415;-69
2021/06/20 07:00:46;;;;;;;4.72;3.60;;;22.40;99.90;;;;;;5095137;28;20047;-69
2021/06/20 07:03:12;;;;;;;5.60;3.80;;;22.60;99.90;;;;;;5095792;28;20027;-70
2021/06/20 07:05:38;;;;;;;7.13;4.20;;;22.60;99.90;;;;;;5096846;28;20024;-69
2021/06/20 07:08:05;;;;;;;9.82;3.90;;;22.60;99.90;;;;;;5095699;28;20024;-69
2021/06/20 07:10:30;;;;;;;6.18;4.15;;;22.60;99.90;;;;;;5095247;28;20416;-69
2021/06/20 07:12:56;;;;;;;7.38;4.03;;;22.60;99.90;;;;;;5077986;28;20085;-69
2021/06/20 07:15:22;;;;;;;5.18;4.43;;;22.70;99.90;;;;;;5096720;28;20028;-69
2021/06/20 07:17:48;;;;;;;5.13;3.90;;;22.70;99.90;;;;;;5094749;28;20389;-69
2021/06/20 07:20:15;;;;;;;6.43;4.10;;;23.00;99.90;;;;;;5095601;28;20016;-69
2021/06/20 07:22:42;;;;;;;8.02;4.20;;;23.10;99.90;;;;;;5096572;28;20012;-69
2021/06/20 07:25:08;;;;;;;6.18;3.78;;;23.40;99.90;;;;;;5095362;28;20368;-69
2021/06/20 07:27:36;;;;;;;6.07;3.70;;;24.30;99.90;;;;;;5094992;28;20073;-69
2021/06/20 07:30:06;;;;;;;7.00;4.13;;;24.60;99.90;;;;;;5094600;28;20122;-69
2021/06/20 07:32:31;;;;;;;6.85;3.83;;;23.80;99.90;;;;;;5095741;28;20024;-69
2021/06/20 07:34:57;;;;;;;6.93;3.90;;;24.40;99.90;;;;;;5095164;28;20031;-69
2021/06/20 07:37:22;;;;;;;4.68;3.30;;;24.70;99.90;;;;;;5095873;28;20105;-69
2021/06/20 07:39:48;;;;;;;5.13;3.45;;;24.10;99.90;;;;;;5096245;28;20431;-68
2021/06/20 07:42:13;;;;;;;5.22;3.42;;;24.00;99.90;;;;;;5096177;28;20024;-69
2021/06/20 07:44:39;;;;;;;5.13;3.10;;;25.00;99.90;;;;;;5095864;28;20055;-69
2021/06/20 07:47:04;;;;;;;3.78;3.15;;;25.10;99.90;;;;;;5094681;28;20054;-69
2021/06/20 07:49:30;;;;;;;4.45;3.28;;;25.70;99.90;;;;;;5095957;28;20103;-69
2021/06/20 07:51:55;;;;;;;4.72;3.35;;;26.10;99.90;;;;;;5094526;28;20462;-69
2021/06/20 07:54:21;;;;;;;5.90;3.30;;;26.30;99.90;;;;;;5077298;28;20031;-69
2021/06/20 07:56:47;;;;;;;4.40;2.95;;;26.50;99.90;;;;;;5095586;28;20016;-69
2021/06/20 07:59:12;;;;;;;5.05;3.10;;;26.80;99.90;;;;;;5095779;28;20020;-70
2021/06/20 08:01:39;;;;;;;5.18;3.33;;;26.50;99.90;;;;;;5095511;28;20031;-69
2021/06/20 08:04:05;;;;;;;4.10;2.67;;;26.50;99.90;;;;;;5095747;28;20016;-69
2021/06/20 08:06:31;;;;;;;3.63;2.70;;;26.60;99.90;;;;;;5095448;28;20104;-70
2021/06/20 08:08:56;;;;;;;5.13;2.80;;;27.00;99.90;;;;;;5094202;28;20055;-70
2021/06/20 08:11:23;;;;;;;4.55;2.78;;;27.00;99.90;;;;;;5076865;28;20028;-69
2021/06/20 08:13:48;;;;;;;6.80;2.50;;;26.90;99.90;;;;;;5076972;28;20534;-70
2021/06/20 08:16:14;;;;;;;3.22;2.50;;;27.00;99.90;;;;;;5093963;28;20028;-70
2021/06/20 08:18:40;;;;;;;5.93;2.67;;;26.60;99.90;;;;;;5076642;28;20035;-70
2021/06/20 08:21:05;;;;;;;5.20;2.50;;;26.40;99.90;;;;;;5094248;28;20031;-70
2021/06/20 08:23:31;;;;;;;5.70;2.50;;;26.50;99.90;;;;;;5095024;28;20028;-70
2021/06/20 08:25:56;;;;;;;3.38;2.40;;;27.00;99.90;;;;;;5077460;28;20108;-70
2021/06/20 08:28:23;;;;;;;6.35;2.10;;;27.20;99.90;;;;;;5095258;28;20024;-70
2021/06/20 08:30:49;;;;;;;3.90;2.10;;;27.30;99.90;;;;;;5094958;28;20035;-70
2021/06/20 08:33:15;;;;;;;7.05;2.47;;;27.10;99.90;;;;;;5095159;28;20162;-70
2021/06/20 08:35:41;;;;;;;4.00;2.10;;;26.80;99.90;;;;;;5093679;28;20028;-70
2021/06/20 08:38:06;;;;;;;2.70;2.20;;;27.10;99.90;;;;;;5094327;28;20507;-70
2021/06/20 08:40:32;;;;;;;2.50;2.20;;;26.70;99.90;;;;;;5076207;28;20020;-70
2021/06/20 08:42:58;;;;;;;6.15;2.45;;;27.30;99.90;;;;;;5093749;28;20107;-70
2021/06/20 08:45:25;;;;;;;3.97;2.35;;;27.70;99.90;;;;;;5094373;28;20069;-69
2021/06/20 08:47:51;;;;;;;6.00;2.25;;;28.10;99.90;;;;;;5094353;28;20028;-70
2021/06/20 08:50:17;;;;;;;4.25;2.08;;;28.30;99.90;;;;;;5094822;28;20024;-70
2021/06/20 08:52:44;;;;;;;8.40;2.00;;;28.20;99.90;;;;;;5093923;28;20020;-70
2021/06/20 08:55:12;;;;;;;3.17;2.03;;;27.50;99.90;;;;;;5092984;28;20502;-70
2021/06/20 08:57:40;;;;;;;4.60;2.00;;;28.60;99.90;;;;;;5094323;28;20020;-70
2021/06/20 09:00:10;;;;;;;3.83;2.30;;;28.10;99.90;;;;;;5094152;28;20016;-70
2021/06/20 09:02:36;;;;;;;5.00;2.25;;;28.80;99.90;;;;;;5094375;28;20044;-70
2021/06/20 09:05:05;;;;;;;6.47;1.92;;;27.60;99.90;;;;;;5094371;28;20401;-70
2021/06/20 09:07:38;;;;;;;8.38;2.15;;;28.30;99.90;;;;;;5094306;28;20019;-70
2021/06/20 09:10:20;;;;;;;;;;;28.20;99.90;;;;;;5094973;28;20017;-70
2021/06/20 09:12:50;;;;;;;3.58;2.15;;;27.10;99.90;;;;;;5094469;28;19931;-70
2021/06/20 09:15:18;;;;;;;3.22;2.05;;;26.80;99.90;;;;;;5094485;28;20521;-70
2021/06/20 09:17:50;;;;;;;3.33;2.00;;;27.30;99.90;;;;;;5094052;28;20020;-70
2021/06/20 09:20:16;;;;;;;2.15;2.05;;;28.20;99.90;;;;;;5094109;28;20069;-70
2021/06/20 09:22:42;;;;;;;5.78;2.10;;;28.40;99.90;;;;;;5092890;28;20020;-70
2021/06/20 09:25:12;;;;;;;2.72;1.98;;;28.00;99.90;;;;;;5092827;28;20027;-70
2021/06/20 09:27:38;;;;;;;2.83;2.00;;;28.50;99.90;;;;;;5092855;28;20039;-70
2021/06/20 09:30:09;;;;;;;6.57;2.20;;;28.60;99.90;;;;;;5092443;28;20028;-70
2021/06/20 09:32:35;;;;;;;3.53;1.70;;;28.50;99.90;;;;;;5092766;28;20020;-70
2021/06/20 09:35:01;;;;;;;2.95;1.80;;;27.90;99.90;;;;;;5092386;28;20093;-70
2021/06/20 09:37:27;;;;;;;3.70;1.80;;;28.00;99.90;;;;;;5093747;28;20044;-70
2021/06/20 09:39:53;;;;;;;2.38;2.05;;;28.00;99.90;;;;;;5092313;28;20016;-70
2021/06/20 09:42:19;;;;;;;5.38;1.88;;;27.80;99.90;;;;;;5094116;28;20025;-70
2021/06/20 09:44:48;;;;;;;3.75;1.70;;;27.70;99.90;;;;;;5075448;28;20073;-70
2021/06/20 09:47:17;;;;;;;3.72;1.58;;;27.90;99.90;;;;;;5094097;28;20016;-70
2021/06/20 09:49:45;;;;;;;2.40;1.70;;;27.40;99.90;;;;;;5092522;28;20024;-69
2021/06/20 09:52:11;;;;;;;1.88;1.52;;;27.20;99.90;;;;;;5092156;28;20032;-70
2021/06/20 09:54:43;;;;;;;2.92;1.83;;;26.80;99.90;;;;;;5094443;28;20073;-70
2021/06/20 09:57:15;;;;;;;3.97;2.08;;;26.80;99.90;;;;;;5096551;28;20085;-70
2021/06/20 09:59:42;;;;;;;3.47;2.05;;;27.30;99.90;;;;;;5096203;28;20028;-70
2021/06/20 10:02:12;;;;;;;3.10;1.77;;;28.00;99.30;;;;;;5096852;28;20018;-70
2021/06/20 10:04:39;;;;;;;1.95;1.80;;;28.30;98.70;;;;;;5079511;28;20381;-69
2021/06/20 10:07:06;;;;;;;1.65;1.38;;;28.80;98.30;;;;;;5097996;28;20078;-70
2021/06/20 10:09:33;;;;;;;3.83;1.77;;;29.00;98.30;;;;;;5098009;28;20060;-70
2021/06/20 10:11:59;;;;;;;4.85;1.80;;;29.50;97.80;;;;;;5097308;28;20027;-70
2021/06/20 10:14:26;;;;;;;1.80;1.63;;;29.20;96.40;;;;;;5097535;28;20028;-70
2021/06/20 10:16:55;;;;;;;4.57;1.70;;;29.20;96.30;;;;;;5097503;28;20020;-70
2021/06/20 10:19:23;;;;;;;3.38;1.63;;;29.30;96.20;;;;;;5097690;28;20068;-70
2021/06/20 10:22:07;;;;;;;2.80;1.60;;;29.60;95.80;;;;;;5096558;28;20021;-70
2021/06/20 10:24:56;;;;;;;1.77;1.40;;;29.50;95.40;;;;;;5096219;28;20028;-70
2021/06/20 10:27:38;;;;;;;2.15;1.50;;;28.50;95.20;;;;;;5096988;28;20020;-70
2021/06/20 10:30:08;;;;;;;3.55;1.52;;;28.40;96.20;;;;;;5079331;28;20027;-70
2021/06/20 10:32:40;;;;;;;1.50;1.38;;;28.90;95.40;;;;;;5095690;28;20028;-70
2021/06/20 10:35:13;;;;;;;2.50;1.30;;;29.40;95.40;;;;;;5097556;28;20029;-70
2021/06/20 10:37:39;;;;;;;3.97;1.50;;;30.20;94.50;;;;;;5095653;28;20097;-70
2021/06/20 10:40:24;;;;;;;2.42;1.42;;;29.70;95.10;;;;;;5097356;28;20404;-70
2021/06/20 10:42:52;;;;;;;3.63;1.20;;;30.00;94.10;;;;;;5097329;28;20020;-70
2021/06/20 10:45:36;;;;;;;2.15;1.45;;;29.00;96.00;;;;;;5096155;28;20065;-70
2021/06/20 10:48:22;;;;;;;3.08;1.52;;;29.10;96.60;;;;;;5078549;28;20024;-70
2021/06/20 10:50:51;;;;;;;1.95;1.63;;;28.50;95.30;;;;;;5096862;28;20115;-70
2021/06/20 10:53:18;;;;;;;1.88;1.50;;;28.30;95.80;;;;;;5078380;28;20026;-70
2021/06/20 10:58:34;;;;;;;3.38;1.52;;;28.50;96.50;;;;;;5128045;27;20133;-69
2021/06/20 11:01:22;;;;;;;2.08;1.60;;;28.40;95.10;;;;;;5111841;28;20469;-68
2021/06/20 11:06:29;;;;;;;4.75;1.75;;;27.10;96.20;;;;;;5172888;27;48973;-69
2021/06/20 11:08:59;;;;;;;2.42;1.52;;;26.40;97.10;;;;;;5152495;27;20027;-68
2021/06/20 11:11:27;;;;;;;4.10;1.60;;;26.80;96.90;;;;;;5151557;27;20023;-68
2021/06/20 11:16:37;;;;;;;1.42;1.33;;;27.50;96.40;;;;;;5128132;27;20136;-69
2021/06/20 11:19:25;;;;;;;4.40;1.77;;;27.40;97.70;;;;;;5110444;28;20035;-68
2021/06/20 11:21:55;;;;;;;2.85;1.48;;;27.40;97.20;;;;;;5110402;28;20020;-69
2021/06/20 11:24:25;;;;;;;1.63;1.35;;;27.60;97.50;;;;;;5110866;28;20390;-69
2021/06/20 11:27:03;;;;;;;1.67;1.48;;;27.80;97.30;;;;;;5111784;28;20403;-69
2021/06/20 11:29:49;;;;;;;2.85;1.45;;;28.00;95.80;;;;;;5109890;28;20051;-68
2021/06/20 11:32:29;;;;;;;6.00;1.75;;;27.60;95.60;;;;;;5111109;28;20366;-69
2021/06/20 11:34:59;;;;;;;2.25;1.77;;;27.30;96.70;;;;;;5111472;28;20346;-69
2021/06/20 11:37:29;;;;;;;2.85;1.67;;;27.80;96.90;;;;;;5111484;28;20051;-69
2021/06/20 11:39:57;;;;;;;2.55;1.50;;;28.20;95.30;;;;;;5109624;28;20354;-68
2021/06/20 11:42:26;;;;;;;1.88;1.40;;;28.00;94.10;;;;;;5110462;28;20020;-69
2021/06/20 11:44:54;;;;;;;1.55;1.40;;;28.00;94.60;;;;;;5111147;28;20024;-70
2021/06/20 11:47:37;;;;;;;1.65;1.52;;;28.00;94.80;;;;;;5109659;28;20015;-70
2021/06/20 11:50:15;;;;;;;1.65;1.30;;;27.50;95.30;;;;;;5092827;28;20411;-70
2021/06/20 11:52:45;;;;;;;2.30;1.30;;;27.70;94.10;;;;;;5110926;28;20031;-70
2021/06/20 11:55:15;;;;;;;3.60;1.30;;;27.90;94.60;;;;;;5109670;28;20023;-70
2021/06/20 11:57:41;;;;;;;1.58;1.48;;;28.10;93.50;;;;;;5111185;28;20048;-70
2021/06/20 12:00:12;;;;;;;3.85;1.45;;;28.20;93.90;;;;;;5111112;28;20024;-70
2021/06/20 12:02:38;;;;;;;2.40;1.35;;;28.00;93.00;;;;;;5111012;28;20022;-71
2021/06/20 12:05:04;;;;;;;1.65;1.30;;;28.30;95.10;;;;;;5111002;28;20035;-70
2021/06/20 12:07:30;;;;;;;3.20;1.75;;;28.10;94.80;;;;;;5110988;28;20549;-70
2021/06/20 12:09:56;;;;;;;3.90;1.70;;;28.10;94.30;;;;;;5110896;28;20167;-70
2021/06/20 12:12:21;;;;;;;2.60;1.58;;;28.30;93.70;;;;;;5110863;28;20484;-70
2021/06/20 12:15:03;;;;;;;1.50;1.40;;;27.90;94.20;;;;;;5109063;28;20040;-70
2021/06/20 12:17:29;;;;;;;2.53;1.48;;;27.60;95.10;;;;;;5108923;28;20020;-70
2021/06/20 12:19:56;;;;;;;2.78;1.50;;;27.80;94.70;;;;;;5110695;28;20480;-70
2021/06/20 12:22:22;;;;;;;4.32;1.60;;;28.30;93.60;;;;;;5110062;28;20030;-70
2021/06/20 12:24:58;;;;;;;2.78;1.30;;;28.80;93.30;;;;;;5110579;28;20103;-70
2021/06/20 12:27:33;;;;;;;2.08;1.40;;;28.50;91.50;;;;;;5098133;28;20020;-70
2021/06/20 12:30:11;;;;;;;1.30;1.10;;;28.30;92.00;;;;;;5095184;28;20028;-70
2021/06/20 12:32:37;;;;;;;1.98;1.20;;;28.40;94.00;;;;;;5096890;28;20073;-70
2021/06/20 12:35:03;;;;;;;2.15;1.25;;;28.10;93.00;;;;;;5095137;28;20024;-68
2021/06/20 12:37:39;;;;;;;1.95;1.30;;;28.10;93.60;;;;;;5096216;28;20028;-70
2021/06/20 12:40:11;;;;;;;2.92;1.60;;;28.10;92.10;;;;;;5096819;28;20485;-70
2021/06/20 12:42:48;;;;;;;2.15;1.60;;;27.90;93.90;;;;;;5096666;28;20472;-68
2021/06/20 12:45:26;;;;;;;3.38;1.73;;;27.80;93.50;;;;;;5096741;28;20369;-68
2021/06/20 12:47:56;;;;;;;2.38;1.60;;;27.80;94.60;;;;;;5096627;28;20158;-70
2021/06/20 12:50:27;;;;;;;2.00;1.70;;;27.80;93.00;;;;;;5095113;28;20385;-70
2021/06/20 12:52:52;;;;;;;1.38;1.27;;;27.80;93.00;;;;;;5096261;28;20020;-70